Terminal Aerodrome Forecast
Issued by NWS

Home | Current Version | Previous Version | Text Only | Print | Product List | Glossary Off
Versions: 1 2 3 4 5 6 7 8 9 10 11 12 13 14 15

000
FTUS43 KGRB 012326
TAFATW
TAF
KATW 012326Z 0200/0224 07006KT P6SM SKC
     FM020100 VRB03KT P6SM SKC
     FM020800 00000KT 4SM BR SKC
      TEMPO 0208/0211 1 1/2SM BR
     FM021200 07006KT P6SM SKC
     FM022200 12006KT P6SM SKC=

USA.gov is the U.S. government's official web portal to all federal, state and local government web resources and services.